Latest Weather Observations for Temora

IDN60801

Issued at 5:03 pm EDT Saturday 18 November 2017 (issued every 30 minutes, with the page automatically refreshed every 10 minutes)

About weather observations | Map of weather stations | Latest weather observations for NSW | Other Formats
Station Details ID: 073151 Name: TEMORA AIRPORT Lat: -34.43 Lon: 147.51 Height: 280.5 m
Data from the previous 72 hours. | See also: Recent months at Temora
Date/Time
EDT
Temp
°C
App
Temp
°C
Dew
Point
°C
Rel
Hum
%
Delta-T
°C
Wind Press
QNH
hPa
Press
MSL
hPa
Rain since
9am
mm
Dir  Spd
km/h
Gust
km/h
Spd
kts
Gust
kts
18/05:00pm 19.2 17.1 15.3 78 2.3 E 20 28 11 15 1017.0 1016.1 1.0
18/04:30pm 18.2 16.2 14.9 81 1.9 E 19 24 10 13 1017.3 1016.4 1.0
18/04:00pm 17.9 15.7 15.0 83 1.7 ENE 20 26 11 14 1017.7 1016.8 1.0
18/03:30pm 17.7 15.6 14.8 83 1.7 E 19 26 10 14 1018.1 1017.2 1.0
18/03:00pm 18.3 17.0 15.9 86 1.4 E 17 20 9 11 1018.3 1017.4 0.6
18/02:30pm 18.3 17.0 15.9 86 1.4 ENE 17 22 9 12 1018.3 1017.4 0.6
18/02:00pm 17.9 16.4 16.4 91 0.9 ENE 19 28 10 15 1018.6 1017.6 0.6
18/01:30pm 18.0 16.6 16.5 91 0.9 E 19 32 10 17 1018.7 1017.7 0.4
18/01:00pm 17.9 16.0 16.6 92 0.8 E 22 30 12 16 1018.7 1017.7 0.2
18/12:30pm 18.0 16.5 16.7 92 0.8 E 20 28 11 15 1018.8 1017.8 0.2
18/12:00pm 18.0 16.2 16.0 88 1.2 E 20 32 11 17 1018.7 1017.7 0.0
18/11:30am 18.7 16.2 15.2 80 2.1 E 22 33 12 18 1018.6 1017.6 0.0
18/11:00am 19.2 17.1 15.1 77 2.4 E 20 32 11 17 1018.2 1017.3 0.0
18/10:30am 19.0 17.4 14.9 77 2.4 E 17 32 9 17 1018.0 1017.1 0.0
18/10:00am 18.4 16.6 15.5 83 1.7 E 19 26 10 14 1017.8 1016.9 0.0
18/09:30am 18.4 16.5 15.1 81 2.0 E 19 30 10 16 1017.6 1016.7 0.0
18/09:00am 18.5 16.8 14.8 79 2.2 E 17 26 9 14 1017.4 1016.5 4.8
18/08:30am 18.2 17.2 14.5 79 2.2 ENE 13 20 7 11 1017.4 1016.5 4.8
18/08:00am 17.8 16.7 14.3 80 2.0 E 13 20 7 11 1017.2 1016.3 4.8
18/07:30am 17.5 15.6 14.2 81 1.9 E 17 24 9 13 1017.0 1016.1 4.8
18/07:00am 17.4 15.9 14.1 81 1.9 E 15 20 8 11 1016.8 1015.8 4.8
18/06:30am 17.1 15.8 13.8 81 1.9 E 13 17 7 9 1016.4 1015.4 4.8
18/06:00am 16.6 15.8 13.9 84 1.5 ESE 11 15 6 8 1016.1 1015.1 4.8
18/05:30am 16.4 16.4 14.1 86 1.3 E 7 9 4 5 1015.8 1014.8 4.8
18/05:00am 15.8 15.9 14.5 92 0.8 SSE 7 9 4 5 1015.7 1014.7 4.8
18/04:30am 16.4 16.6 14.1 86 1.3 NE 6 7 3 4 1015.8 1014.8 4.8
18/04:00am 16.4 16.0 14.1 86 1.3 E 9 13 5 7 1015.5 1014.5 4.8
18/03:30am 16.4 16.3 13.9 85 1.4 E 7 9 4 5 1015.7 1014.7 4.8
18/03:00am 16.9 16.1 14.0 83 1.7 ENE 11 13 6 7 1015.9 1014.9 4.8
18/02:30am 17.2 16.4 13.9 81 1.9 ENE 11 17 6 9 1015.8 1014.8 4.8
18/02:00am 16.9 16.4 13.8 82 1.8 E 9 13 5 7 1016.1 1015.1 4.8
18/01:30am 17.0 16.9 13.9 82 1.8 NE 7 11 4 6 1016.3 1015.3 4.8
18/01:00am 17.3 15.2 13.6 79 2.1 E 17 24 9 13 1016.2 1015.2 4.8
18/12:30am 17.6 15.9 13.7 78 2.2 E 15 20 8 11 1016.1 1015.1 4.8
18/12:00am 18.0 16.9 14.3 79 2.2 ENE 13 19 7 10 1016.1 1015.1 4.8
 
Date/Time
EDT
Temp
°C
App
Temp
°C
Dew
Point
°C
Rel
Hum
%
Delta-T
°C
Wind Press
QNH
hPa
Press
MSL
hPa
Rain since
9am
mm
Dir  Spd
km/h
Gust
km/h
Spd
kts
Gust
kts
17/11:30pm 18.3 15.9 13.8 75 2.6 ENE 19 24 10 13 1015.6 1014.6 4.8
17/11:00pm 18.1 15.1 14.8 81 1.9 E 24 35 13 19 1015.4 1014.4 4.8
17/10:30pm 17.5 15.6 15.1 86 1.4 E 19 24 10 13 1015.2 1014.2 4.6
17/10:00pm 17.7 18.1 15.3 86 1.4 E 7 11 4 6 1015.7 1014.7 3.8
17/09:30pm 17.7 16.9 15.1 85 1.5 NE 13 17 7 9 1015.4 1014.4 3.4
17/09:00pm 19.4 14.9 13.8 70 3.3 ENE 30 48 16 26 1014.0 1013.1 0.8
17/08:57pm 20.7 16.7 14.1 66 3.9 ENE 28 48 15 26 1014.3 1013.4 0.2
17/08:30pm 21.6 17.7 14.3 63 4.3 E 28 41 15 22 1012.9 1011.9 0.2
17/08:00pm 22.0 19.5 14.1 61 4.7 E 20 33 11 18 1013.0 1012.0 0.0
17/07:30pm 22.2 20.1 14.6 62 4.5 E 19 28 10 15 1012.7 1011.7 0.0
17/07:00pm 26.1 24.3 12.2 42 8.1 ENE 13 17 7 9 1011.8 1010.8 0.0
17/06:30pm 26.2 23.8 12.6 43 8.0 ESE 17 20 9 11 1011.4 1010.4 0.0
17/06:00pm 26.7 24.0 10.4 36 9.3 ENE 15 19 8 10 1011.4 1010.4 0.0
17/05:30pm 27.5 25.3 10.7 35 9.6 NNE 13 19 7 10 1011.3 1010.3 0.0
17/05:00pm 28.2 25.8 9.9 32 10.4 N 13 20 7 11 1011.4 1010.4 0.0
17/04:30pm 28.2 25.3 10.9 34 10.0 N 17 26 9 14 1011.4 1010.4 0.0
17/04:00pm 27.8 24.3 12.2 38 9.2 NNE 22 32 12 17 1011.7 1010.7 0.0
17/03:30pm 28.6 24.3 12.1 36 9.7 N 26 41 14 22 1012.1 1011.1 0.0
17/03:00pm 27.9 24.4 11.0 35 9.7 N 20 32 11 17 1012.6 1011.6 0.0
17/02:30pm 27.7 23.9 11.3 36 9.5 N 22 35 12 19 1013.2 1012.2 0.0
17/02:00pm 27.3 23.6 15.0 47 7.5 NNE 28 44 15 24 1013.5 1012.5 0.0
17/01:30pm 26.0 21.4 14.5 49 7.0 NNE 32 41 17 22 1014.1 1013.2 0.0
17/01:00pm 26.1 23.1 14.9 50 6.8 NNE 24 37 13 20 1014.9 1013.9 0.0
17/12:30pm 24.8 22.3 15.1 54 5.9 NNE 22 32 12 17 1015.2 1014.2 0.0
17/12:00pm 24.6 23.0 16.1 59 5.2 NNE 19 28 10 15 1015.4 1014.4 0.0
17/11:30am 23.1 20.1 14.7 59 5.0 NE 24 33 13 18 1015.8 1014.8 0.0
17/11:00am 22.1 19.7 15.5 66 4.0 NNE 22 32 12 17 1015.9 1014.9 0.0
17/10:30am 22.0 19.7 15.6 67 3.9 N 22 30 12 16 1016.0 1015.0 0.0
17/10:00am 20.7 18.1 15.0 70 3.4 NNE 22 32 12 17 1015.9 1014.9 0.0
17/09:30am 20.1 18.0 15.1 73 3.0 NNE 20 30 11 16 1015.9 1014.9 0.0
17/09:00am 19.6 18.1 15.3 76 2.6 NNE 17 22 9 12 1015.9 1014.9 8.4
17/08:30am 19.2 16.9 14.7 75 2.7 NNE 20 26 11 14 1015.4 1014.4 8.4
17/08:00am 18.9 17.3 15.0 78 2.3 NNE 17 22 9 12 1015.2 1014.2 8.4
17/07:30am 17.8 16.8 14.5 81 1.9 ENE 13 17 7 9 1015.1 1014.1 8.4
17/07:00am 17.6 16.6 14.5 82 1.8 NE 13 19 7 10 1014.7 1013.8 8.4
17/06:30am 17.1 16.6 14.9 87 1.3 NE 11 13 6 7 1014.3 1013.4 8.4
17/06:00am 16.6 16.4 14.8 89 1.1 NE 9 11 5 6 1014.1 1013.2 8.4
17/05:30am 16.4 16.9 14.9 91 0.9 NNE 6 7 3 4 1013.8 1012.9 8.4
17/05:00am 16.2 16.9 14.6 90 0.9 N 4 7 2 4 1013.8 1012.9 8.4
17/04:30am 16.7 16.5 14.7 88 1.2 ENE 9 13 5 7 1013.9 1013.0 8.4
17/04:00am 16.7 16.1 14.7 88 1.2 ENE 11 13 6 7 1014.0 1013.1 8.4
17/03:30am 16.0 16.1 14.4 90 0.9 NE 7 9 4 5 1014.0 1013.1 8.4
17/03:00am 16.8 16.8 14.3 85 1.4 ENE 7 11 4 6 1013.9 1013.0 8.4
17/02:30am 16.9 16.2 14.2 84 1.6 E 11 15 6 8 1014.0 1013.1 8.4
17/02:00am 16.8 16.0 14.1 84 1.6 ENE 11 15 6 8 1014.0 1013.1 8.4
17/01:30am 16.9 16.2 14.4 85 1.5 ENE 11 13 6 7 1014.0 1013.1 8.4
17/01:00am 16.6 16.3 14.4 87 1.3 NE 9 13 5 7 1014.3 1013.4 8.4
17/12:30am 16.7 16.2 13.8 83 1.7 E 9 11 5 6 1013.9 1013.0 8.4
17/12:00am 17.3 16.9 14.0 81 1.9 E 9 11 5 6 1013.5 1012.5 8.4
 
Date/Time
EDT
Temp
°C
App
Temp
°C
Dew
Point
°C
Rel
Hum
%
Delta-T
°C
Wind Press
QNH
hPa
Press
MSL
hPa
Rain since
9am
mm
Dir  Spd
km/h
Gust
km/h
Spd
kts
Gust
kts
16/11:30pm 17.6 16.9 14.3 81 1.9 SE 11 15 6 8 1013.7 1012.7 8.4
16/11:00pm 17.6 17.6 14.1 80 2.0 SW 7 11 4 6 1014.2 1013.3 8.4
16/10:30pm 17.5 16.1 14.6 83 1.7 W 15 22 8 12 1014.5 1013.6 8.4
16/10:00pm 18.1 18.8 14.4 79 2.2 SE 4 11 2 6 1013.4 1012.4 8.4
16/09:30pm 18.5 18.7 14.6 78 2.3 ESE 7 9 4 5 1013.2 1012.2 8.4
16/09:00pm 18.7 18.5 14.6 77 2.4 E 9 11 5 6 1013.0 1012.0 8.4
16/08:30pm 18.8 17.7 14.3 75 2.6 ENE 13 17 7 9 1012.4 1011.4 8.4
16/08:00pm 19.6 18.1 14.2 71 3.2 E 15 24 8 13 1012.2 1011.2 8.4
16/07:30pm 20.0 17.9 14.8 72 3.1 E 19 26 10 14 1012.2 1011.2 8.4
16/07:00pm 20.2 18.3 15.2 73 3.0 E 19 28 10 15 1012.0 1011.0 8.4
16/06:30pm 20.3 18.0 15.7 75 2.8 E 22 32 12 17 1011.5 1010.5 8.4
16/06:00pm 20.4 18.4 15.6 74 2.9 E 20 28 11 15 1011.7 1010.7 8.4
16/05:30pm 19.7 18.7 16.5 82 1.9 E 17 24 9 13 1011.8 1010.8 8.4
16/05:00pm 18.5 17.8 16.5 88 1.2 E 15 20 8 11 1012.1 1011.1 8.4
16/04:30pm 18.1 18.4 17.0 93 0.7 E 11 19 6 10 1012.3 1011.3 8.4
16/04:00pm 17.3 15.6 16.3 94 0.6 ENE 20 26 11 14 1012.2 1011.2 8.0
16/03:30pm 17.2 16.2 16.6 96 0.4 NE 17 22 9 12 1012.5 1011.5 7.0
16/03:00pm 18.1 14.6 15.4 84 1.6 NE 28 39 15 21 1012.6 1011.6 0.6
16/02:30pm 20.3 14.8 13.7 66 3.8 NE 35 44 19 24 1012.6 1011.6 0.0
16/02:00pm 21.5 17.7 14.6 65 4.1 NE 28 37 15 20 1012.7 1011.7 0.0
16/01:30pm 21.5 16.2 14.2 63 4.3 NE 35 46 19 25 1013.0 1012.0 0.0
16/01:00pm 21.5 17.6 13.4 60 4.7 ENE 26 41 14 22 1013.0 1012.0 0.0
16/12:30pm 21.7 18.4 14.1 62 4.5 ENE 24 32 13 17 1013.2 1012.2 0.0
16/12:00pm 20.6 17.3 14.0 66 3.9 ENE 24 33 13 18 1013.5 1012.5 0.0
16/11:30am 19.7 17.1 13.9 69 3.4 ENE 20 30 11 16 1013.6 1012.6 0.0
16/11:00am 19.5 16.9 13.9 70 3.3 ENE 20 32 11 17 1013.6 1012.6 0.0
16/10:30am 19.6 16.1 13.5 68 3.5 ENE 24 32 13 17 1013.5 1012.5 0.0
16/10:00am 19.6 17.0 13.1 66 3.7 ENE 19 28 10 15 1013.8 1012.9 0.0
16/09:30am 19.6 17.0 13.1 66 3.7 NE 19 24 10 13 1014.1 1013.2 0.0
16/09:00am 19.7 16.7 12.7 64 4.0 NE 20 32 11 17 1013.8 1012.9 0.0
16/08:30am 19.9 16.8 12.2 61 4.4 ENE 20 28 11 15 1013.6 1012.6 0.0
16/08:00am 19.9 17.3 11.9 60 4.5 NE 17 22 9 12 1013.5 1012.5 0.0
16/07:30am 19.4 16.5 12.2 63 4.1 NE 19 24 10 13 1013.2 1012.2 0.0
16/07:00am 19.4 16.5 12.2 63 4.1 NE 19 24 10 13 1012.9 1011.9 0.0
16/06:30am 19.3 16.3 12.1 63 4.1 NNE 19 26 10 14 1012.9 1011.9 0.0
16/06:00am 19.2 16.5 11.7 62 4.2 N 17 24 9 13 1012.9 1011.9 0.0
16/05:30am 19.5 17.2 10.5 56 4.9 N 13 15 7 8 1012.6 1011.6 0.0
16/05:00am 20.3 18.3 10.1 52 5.6 NNE 11 15 6 8 1012.7 1011.7 0.0
16/04:30am 20.1 17.8 10.5 54 5.3 N 13 15 7 8 1012.9 1011.9 0.0
16/04:00am 20.8 19.1 10.0 50 5.9 NNE 9 15 5 8 1013.0 1012.0 0.0
16/03:30am 21.1 19.5 10.3 50 5.9 N 9 11 5 6 1013.3 1012.3 0.0
16/03:00am 21.5 19.9 10.3 49 6.2 NNE 9 11 5 6 1013.6 1012.6 0.0
16/02:30am 21.2 19.7 10.4 50 6.0 NNE 9 13 5 7 1013.7 1012.7 0.0
16/02:00am 21.9 19.8 9.8 46 6.6 NNE 11 15 6 8 1013.6 1012.6 0.0
16/01:30am 21.5 18.7 10.0 48 6.3 NNW 15 20 8 11 1013.6 1012.6 0.0
16/01:00am 20.9 19.3 11.5 55 5.3 NE 11 15 6 8 1014.0 1013.1 0.0
16/12:30am 19.5 20.1 11.8 61 4.3 CALM 0 0 0 0 1013.7 1012.7 0.0
16/12:00am 20.4 19.5 10.8 54 5.3 SE 6 9 3 5 1013.8 1012.9 0.0
 
Date/Time
EDT
Temp
°C
App
Temp
°C
Dew
Point
°C
Rel
Hum
%
Delta-T
°C
Wind Press
QNH
hPa
Press
MSL
hPa
Rain since
9am
mm
Dir  Spd
km/h
Gust
km/h
Spd
kts
Gust
kts
15/11:30pm 19.5 18.6 10.8 57 4.8 WNW 6 9 3 5 1014.1 1013.2 0.0
15/11:00pm 21.6 21.9 11.0 51 5.9 CALM 0 0 0 0 1013.8 1012.9 0.0
15/10:30pm 20.4 20.8 11.3 56 5.1 CALM 0 4 0 2 1013.6 1012.6 0.0
15/10:00pm 21.2 20.1 10.1 49 6.1 SSW 6 6 3 3 1013.5 1012.5 0.0
15/09:30pm 23.0 22.4 9.0 41 7.6 W 2 7 1 4 1013.2 1012.2 0.0
15/09:00pm 23.4 21.5 9.0 40 7.8 W 9 13 5 7 1013.0 1012.0 0.0
15/08:30pm 24.6 21.8 8.5 36 8.7 WNW 13 20 7 11 1012.7 1011.7 0.0
15/08:00pm 26.0 23.7 7.6 31 9.9 NNE 9 11 5 6 1012.1 1011.1 0.0
15/07:30pm 26.5 23.5 7.5 30 10.2 N 13 17 7 9 1012.0 1011.0 0.0
15/07:00pm 28.2 23.7 6.3 25 11.7 N 19 24 10 13 1011.8 1010.8 0.0
15/06:30pm 28.3 24.4 7.0 26 11.5 N 17 22 9 12 1011.6 1010.6 0.0
15/06:00pm 29.3 25.0 7.2 25 12.0 N 19 22 10 12 1011.3 1010.3 0.0
15/05:30pm 29.6 25.2 7.5 25 12.1 N 20 28 11 15 1011.5 1010.5 0.0

Other Formats:

Comma delimited format used in spreadsheet applications
http://www.bom.gov.au/fwo/IDN60801/IDN60801.95722.axf

JavaScript Object Notation format (JSON) in row-major order
http://www.bom.gov.au/fwo/IDN60801/IDN60801.95722.json